Winfield, Illinois
Current Conditions -  °F | °C
As of 7:52 PM on Thursday 27 Nov 2014 (Local Time) from KDPA Reporting Station
Overcast Overcast  
Wind Chill: 18°   Ceiling: 3200
Heat Index: 18°   Visibility: 10mi
Dew Point: 10°   Wind: 3mph
Humidity: 71%   Direction: 330°NNW
Pressure: 30.39"   Gusts: NA
Location:  41.87°N, 88.16°W
Report Text: KDPA 280152Z 33003KT 10SM OVC032 M08/M12 A3039 RMK AO2 SLP303 T10781122
Loading
Personal Weather Stations






























Interactive Weather Map New forecast layout! Learn more

10-Day Weather Forecast

Advertisements
Track Severe Weather on mobile